sensor_id;sensor_type;location;lat;lon;timestamp;P1;durP1;ratioP1;P2;durP2;ratioP2
46222;SDS011;31943;51.410;7.564;2022-11-04T00:00:18;2.00;;;0.90;;
46222;SDS011;31943;51.410;7.564;2022-11-04T00:03:03;2.15;;;0.90;;
46222;SDS011;31943;51.410;7.564;2022-11-04T00:05:47;2.00;;;0.90;;
46222;SDS011;31943;51.410;7.564;2022-11-04T00:08:36;1.42;;;0.73;;
46222;SDS011;31943;51.410;7.564;2022-11-04T00:11:22;1.27;;;0.70;;
46222;SDS011;31943;51.410;7.564;2022-11-04T00:14:07;2.50;;;0.85;;
46222;SDS011;31943;51.410;7.564;2022-11-04T00:16:53;1.67;;;0.60;;
46222;SDS011;31943;51.410;7.564;2022-11-04T00:19:42;1.08;;;0.60;;
46222;SDS011;31943;51.410;7.564;2022-11-04T00:22:34;0.65;;;0.55;;
46222;SDS011;31943;51.410;7.564;2022-11-04T00:25:26;1.15;;;0.73;;
46222;SDS011;31943;51.410;7.564;2022-11-04T00:28:12;1.60;;;0.90;;
46222;SDS011;31943;51.410;7.564;2022-11-04T00:31:03;1.45;;;0.60;;
46222;SDS011;31943;51.410;7.564;2022-11-04T00:33:50;2.45;;;0.80;;
46222;SDS011;31943;51.410;7.564;2022-11-04T00:36:37;1.50;;;1.05;;
46222;SDS011;31943;51.410;7.564;2022-11-04T00:39:23;1.85;;;0.90;;
46222;SDS011;31943;51.410;7.564;2022-11-04T00:42:17;2.53;;;0.90;;
46222;SDS011;31943;51.410;7.564;2022-11-04T00:45:05;1.65;;;0.88;;
46222;SDS011;31943;51.410;7.564;2022-11-04T00:48:18;1.17;;;0.70;;
46222;SDS011;31943;51.410;7.564;2022-11-04T00:53:52;1.20;;;0.80;;
46222;SDS011;31943;51.410;7.564;2022-11-04T00:56:48;0.70;;;0.60;;
46222;SDS011;31943;51.410;7.564;2022-11-04T00:59:58;1.42;;;0.88;;
46222;SDS011;31943;51.410;7.564;2022-11-04T01:02:43;2.22;;;0.90;;
46222;SDS011;31943;51.410;7.564;2022-11-04T01:05:31;1.27;;;0.80;;
46222;SDS011;31943;51.410;7.564;2022-11-04T01:08:18;1.20;;;0.93;;
46222;SDS011;31943;51.410;7.564;2022-11-04T01:11:03;1.92;;;0.90;;
46222;SDS011;31943;51.410;7.564;2022-11-04T01:13:49;1.05;;;0.70;;
46222;SDS011;31943;51.410;7.564;2022-11-04T01:16:37;1.20;;;0.70;;
46222;SDS011;31943;51.410;7.564;2022-11-04T01:19:32;1.85;;;0.90;;
46222;SDS011;31943;51.410;7.564;2022-11-04T01:22:19;1.42;;;0.80;;
46222;SDS011;31943;51.410;7.564;2022-11-04T01:25:05;1.77;;;1.00;;
46222;SDS011;31943;51.410;7.564;2022-11-04T01:27:54;2.40;;;1.00;;
46222;SDS011;31943;51.410;7.564;2022-11-04T01:30:40;1.42;;;0.90;;
46222;SDS011;31943;51.410;7.564;2022-11-04T01:33:29;1.42;;;0.75;;
46222;SDS011;31943;51.410;7.564;2022-11-04T01:36:15;1.73;;;0.80;;
46222;SDS011;31943;51.410;7.564;2022-11-04T01:39:00;2.05;;;1.00;;
46222;SDS011;31943;51.410;7.564;2022-11-04T01:41:46;2.35;;;1.13;;
46222;SDS011;31943;51.410;7.564;2022-11-04T01:44:47;2.67;;;1.30;;
46222;SDS011;31943;51.410;7.564;2022-11-04T01:47:38;2.45;;;1.30;;
46222;SDS011;31943;51.410;7.564;2022-11-04T01:50:31;2.80;;;1.35;;
46222;SDS011;31943;51.410;7.564;2022-11-04T01:53:20;2.45;;;1.52;;
46222;SDS011;31943;51.410;7.564;2022-11-04T01:56:09;1.50;;;1.27;;
46222;SDS011;31943;51.410;7.564;2022-11-04T01:58:58;2.13;;;1.77;;
46222;SDS011;31943;51.410;7.564;2022-11-04T02:01:46;2.22;;;1.65;;
46222;SDS011;31943;51.410;7.564;2022-11-04T02:04:32;3.58;;;1.85;;
46222;SDS011;31943;51.410;7.564;2022-11-04T02:07:23;2.97;;;1.70;;
46222;SDS011;31943;51.410;7.564;2022-11-04T02:10:08;2.30;;;1.60;;
46222;SDS011;31943;51.410;7.564;2022-11-04T02:12:55;4.20;;;1.77;;
46222;SDS011;31943;51.410;7.564;2022-11-04T02:15:43;2.35;;;1.75;;
46222;SDS011;31943;51.410;7.564;2022-11-04T02:18:39;2.13;;;1.92;;
46222;SDS011;31943;51.410;7.564;2022-11-04T02:21:43;3.25;;;1.98;;
46222;SDS011;31943;51.410;7.564;2022-11-04T02:34:37;3.53;;;2.03;;
46222;SDS011;31943;51.410;7.564;2022-11-04T02:37:33;2.83;;;2.10;;
46222;SDS011;31943;51.410;7.564;2022-11-04T02:40:26;3.67;;;2.42;;
46222;SDS011;31943;51.410;7.564;2022-11-04T02:43:20;5.93;;;2.30;;
46222;SDS011;31943;51.410;7.564;2022-11-04T02:46:11;4.90;;;2.28;;
46222;SDS011;31943;51.410;7.564;2022-11-04T02:49:06;3.15;;;1.90;;
46222;SDS011;31943;51.410;7.564;2022-11-04T02:51:58;4.78;;;2.40;;
46222;SDS011;31943;51.410;7.564;2022-11-04T02:54:50;2.33;;;2.10;;
46222;SDS011;31943;51.410;7.564;2022-11-04T02:57:40;3.22;;;2.60;;
46222;SDS011;31943;51.410;7.564;2022-11-04T03:00:30;4.63;;;1.95;;
46222;SDS011;31943;51.410;7.564;2022-11-04T03:03:23;5.38;;;2.15;;
46222;SDS011;31943;51.410;7.564;2022-11-04T03:06:13;4.40;;;1.75;;
46222;SDS011;31943;51.410;7.564;2022-11-04T03:09:01;4.88;;;1.80;;
46222;SDS011;31943;51.410;7.564;2022-11-04T03:11:49;3.83;;;1.55;;
46222;SDS011;31943;51.410;7.564;2022-11-04T03:14:38;6.03;;;1.83;;
46222;SDS011;31943;51.410;7.564;2022-11-04T03:17:43;2.50;;;1.73;;
46222;SDS011;31943;51.410;7.564;2022-11-04T03:20:34;3.92;;;1.90;;
46222;SDS011;31943;51.410;7.564;2022-11-04T03:23:26;2.90;;;1.90;;
46222;SDS011;31943;51.410;7.564;2022-11-04T03:26:12;4.53;;;2.20;;
46222;SDS011;31943;51.410;7.564;2022-11-04T03:29:05;5.60;;;2.10;;
46222;SDS011;31943;51.410;7.564;2022-11-04T03:32:04;4.88;;;1.92;;
46222;SDS011;31943;51.410;7.564;2022-11-04T03:34:55;5.32;;;2.38;;
46222;SDS011;31943;51.410;7.564;2022-11-04T03:37:43;4.88;;;2.00;;
46222;SDS011;31943;51.410;7.564;2022-11-04T03:40:36;3.97;;;2.10;;
46222;SDS011;31943;51.410;7.564;2022-11-04T03:43:34;3.80;;;1.83;;
46222;SDS011;31943;51.410;7.564;2022-11-04T03:46:29;4.32;;;1.80;;
46222;SDS011;31943;51.410;7.564;2022-11-04T03:49:22;6.63;;;2.13;;
46222;SDS011;31943;51.410;7.564;2022-11-04T03:52:13;7.53;;;1.80;;
46222;SDS011;31943;51.410;7.564;2022-11-04T03:55:19;4.10;;;1.73;;
46222;SDS011;31943;51.410;7.564;2022-11-04T03:58:19;5.28;;;1.92;;
46222;SDS011;31943;51.410;7.564;2022-11-04T04:01:34;5.28;;;1.45;;
46222;SDS011;31943;51.410;7.564;2022-11-04T04:04:45;2.85;;;1.67;;
46222;SDS011;31943;51.410;7.564;2022-11-04T04:07:59;5.10;;;1.70;;
46222;SDS011;31943;51.410;7.564;2022-11-04T04:11:03;7.63;;;1.60;;
46222;SDS011;31943;51.410;7.564;2022-11-04T04:20:37;5.97;;;1.50;;
46222;SDS011;31943;51.410;7.564;2022-11-04T04:23:26;3.40;;;1.20;;
46222;SDS011;31943;51.410;7.564;2022-11-04T04:26:14;4.25;;;1.42;;
46222;SDS011;31943;51.410;7.564;2022-11-04T04:29:01;4.05;;;1.23;;
46222;SDS011;31943;51.410;7.564;2022-11-04T04:31:49;5.82;;;1.48;;
46222;SDS011;31943;51.410;7.564;2022-11-04T04:34:43;4.72;;;1.15;;
46222;SDS011;31943;51.410;7.564;2022-11-04T04:37:31;3.45;;;0.93;;
46222;SDS011;31943;51.410;7.564;2022-11-04T04:40:17;3.22;;;1.00;;
46222;SDS011;31943;51.410;7.564;2022-11-04T04:43:10;5.95;;;1.60;;
46222;SDS011;31943;51.410;7.564;2022-11-04T04:45:59;6.15;;;1.27;;
46222;SDS011;31943;51.410;7.564;2022-11-04T04:48:45;5.60;;;1.13;;
46222;SDS011;31943;51.410;7.564;2022-11-04T04:51:37;8.80;;;2.13;;
46222;SDS011;31943;51.410;7.564;2022-11-04T04:54:26;3.22;;;1.00;;
46222;SDS011;31943;51.410;7.564;2022-11-04T04:57:29;3.72;;;1.20;;
46222;SDS011;31943;51.410;7.564;2022-11-04T05:00:18;5.93;;;1.02;;
46222;SDS011;31943;51.410;7.564;2022-11-04T05:03:04;4.38;;;1.30;;
46222;SDS011;31943;51.410;7.564;2022-11-04T05:06:02;3.80;;;1.00;;
46222;SDS011;31943;51.410;7.564;2022-11-04T05:09:10;4.22;;;1.25;;
46222;SDS011;31943;51.410;7.564;2022-11-04T05:11:58;7.57;;;1.33;;
46222;SDS011;31943;51.410;7.564;2022-11-04T05:14:48;5.30;;;0.85;;
46222;SDS011;31943;51.410;7.564;2022-11-04T05:17:33;6.43;;;0.75;;
46222;SDS011;31943;51.410;7.564;2022-11-04T05:20:21;5.45;;;1.17;;
46222;SDS011;31943;51.410;7.564;2022-11-04T05:23:09;5.00;;;1.10;;
46222;SDS011;31943;51.410;7.564;2022-11-04T05:26:02;6.97;;;1.63;;
46222;SDS011;31943;51.410;7.564;2022-11-04T05:28:49;4.70;;;1.45;;
46222;SDS011;31943;51.410;7.564;2022-11-04T05:34:41;3.85;;;1.10;;
46222;SDS011;31943;51.410;7.564;2022-11-04T05:37:34;4.38;;;0.95;;
46222;SDS011;31943;51.410;7.564;2022-11-04T05:40:20;3.75;;;0.90;;
46222;SDS011;31943;51.410;7.564;2022-11-04T05:43:18;6.60;;;1.20;;
46222;SDS011;31943;51.410;7.564;2022-11-04T05:46:06;3.85;;;1.05;;
46222;SDS011;31943;51.410;7.564;2022-11-04T05:48:57;2.60;;;0.70;;
46222;SDS011;31943;51.410;7.564;2022-11-04T05:51:52;5.47;;;1.02;;
46222;SDS011;31943;51.410;7.564;2022-11-04T05:54:51;3.15;;;1.30;;
46222;SDS011;31943;51.410;7.564;2022-11-04T05:57:39;4.40;;;1.30;;
46222;SDS011;31943;51.410;7.564;2022-11-04T06:00:27;7.18;;;2.67;;
46222;SDS011;31943;51.410;7.564;2022-11-04T06:03:15;6.90;;;2.33;;
46222;SDS011;31943;51.410;7.564;2022-11-04T06:06:05;4.15;;;1.65;;
46222;SDS011;31943;51.410;7.564;2022-11-04T06:08:53;3.80;;;1.45;;
46222;SDS011;31943;51.410;7.564;2022-11-04T06:11:38;2.92;;;1.20;;
46222;SDS011;31943;51.410;7.564;2022-11-04T06:14:23;4.97;;;1.13;;
46222;SDS011;31943;51.410;7.564;2022-11-04T06:26:56;4.53;;;1.30;;
46222;SDS011;31943;51.410;7.564;2022-11-04T06:29:42;4.65;;;1.30;;
46222;SDS011;31943;51.410;7.564;2022-11-04T06:32:30;4.93;;;1.42;;
46222;SDS011;31943;51.410;7.564;2022-11-04T06:35:14;6.68;;;1.52;;
46222;SDS011;31943;51.410;7.564;2022-11-04T06:37:59;3.55;;;1.20;;
46222;SDS011;31943;51.410;7.564;2022-11-04T06:40:44;4.13;;;1.20;;
46222;SDS011;31943;51.410;7.564;2022-11-04T06:43:29;4.47;;;1.10;;
46222;SDS011;31943;51.410;7.564;2022-11-04T06:46:23;3.15;;;1.17;;
46222;SDS011;31943;51.410;7.564;2022-11-04T06:49:15;6.97;;;1.30;;
46222;SDS011;31943;51.410;7.564;2022-11-04T06:52:26;4.20;;;1.15;;
46222;SDS011;31943;51.410;7.564;2022-11-04T06:55:12;6.82;;;1.42;;
46222;SDS011;31943;51.410;7.564;2022-11-04T06:58:25;6.45;;;1.27;;
46222;SDS011;31943;51.410;7.564;2022-11-04T07:01:16;5.00;;;1.23;;
46222;SDS011;31943;51.410;7.564;2022-11-04T07:04:02;6.05;;;1.60;;
46222;SDS011;31943;51.410;7.564;2022-11-04T07:07:01;6.35;;;1.27;;
46222;SDS011;31943;51.410;7.564;2022-11-04T07:09:46;3.70;;;1.08;;
46222;SDS011;31943;51.410;7.564;2022-11-04T07:12:35;5.88;;;1.13;;
46222;SDS011;31943;51.410;7.564;2022-11-04T07:17:55;4.00;;;0.85;;
46222;SDS011;31943;51.410;7.564;2022-11-04T07:20:44;4.10;;;1.00;;
46222;SDS011;31943;51.410;7.564;2022-11-04T07:23:38;3.33;;;1.05;;
46222;SDS011;31943;51.410;7.564;2022-11-04T07:26:25;4.18;;;1.00;;
46222;SDS011;31943;51.410;7.564;2022-11-04T07:46:29;4.13;;;1.48;;
46222;SDS011;31943;51.410;7.564;2022-11-04T08:02:45;3.00;;;1.02;;
46222;SDS011;31943;51.410;7.564;2022-11-04T08:08:21;2.50;;;0.80;;
46222;SDS011;31943;51.410;7.564;2022-11-04T08:11:12;4.10;;;0.90;;
46222;SDS011;31943;51.410;7.564;2022-11-04T08:13:58;4.35;;;0.88;;
46222;SDS011;31943;51.410;7.564;2022-11-04T08:16:58;5.38;;;1.13;;
46222;SDS011;31943;51.410;7.564;2022-11-04T08:19:48;3.33;;;0.80;;
46222;SDS011;31943;51.410;7.564;2022-11-04T08:22:35;4.10;;;1.02;;
46222;SDS011;31943;51.410;7.564;2022-11-04T08:25:22;1.98;;;0.70;;
46222;SDS011;31943;51.410;7.564;2022-11-04T08:28:14;4.57;;;0.73;;
46222;SDS011;31943;51.410;7.564;2022-11-04T08:34:11;4.00;;;1.00;;
46222;SDS011;31943;51.410;7.564;2022-11-04T08:37:12;5.07;;;1.23;;
46222;SDS011;31943;51.410;7.564;2022-11-04T08:48:04;6.70;;;1.30;;
46222;SDS011;31943;51.410;7.564;2022-11-04T08:53:34;3.10;;;1.00;;
46222;SDS011;31943;51.410;7.564;2022-11-04T08:56:22;6.15;;;1.20;;
46222;SDS011;31943;51.410;7.564;2022-11-04T08:59:09;4.05;;;0.80;;
46222;SDS011;31943;51.410;7.564;2022-11-04T09:01:54;5.60;;;1.08;;
46222;SDS011;31943;51.410;7.564;2022-11-04T09:04:40;4.60;;;1.23;;
46222;SDS011;31943;51.410;7.564;2022-11-04T09:07:43;3.15;;;1.13;;
46222;SDS011;31943;51.410;7.564;2022-11-04T09:10:31;3.67;;;1.00;;
46222;SDS011;31943;51.410;7.564;2022-11-04T09:13:38;3.60;;;1.05;;
46222;SDS011;31943;51.410;7.564;2022-11-04T09:16:24;4.72;;;1.13;;
46222;SDS011;31943;51.410;7.564;2022-11-04T09:19:02;2.60;;;0.82;;
46222;SDS011;31943;51.410;7.564;2022-11-04T09:21:58;9.20;;;2.38;;
46222;SDS011;31943;51.410;7.564;2022-11-04T09:35:23;5.43;;;0.90;;
46222;SDS011;31943;51.410;7.564;2022-11-04T09:47:37;5.00;;;0.98;;
46222;SDS011;31943;51.410;7.564;2022-11-04T09:56:56;4.15;;;1.40;;
46222;SDS011;31943;51.410;7.564;2022-11-04T11:07:48;3.28;;;0.90;;
46222;SDS011;31943;51.410;7.564;2022-11-04T11:10:37;7.63;;;1.25;;
46222;SDS011;31943;51.410;7.564;2022-11-04T11:14:02;5.70;;;1.40;;
46222;SDS011;31943;51.410;7.564;2022-11-04T11:34:13;6.05;;;1.05;;
46222;SDS011;31943;51.410;7.564;2022-11-04T11:44:23;6.78;;;1.45;;
46222;SDS011;31943;51.410;7.564;2022-11-04T11:47:40;3.60;;;1.30;;
46222;SDS011;31943;51.410;7.564;2022-11-04T12:25:10;7.28;;;1.35;;
46222;SDS011;31943;51.410;7.564;2022-11-04T12:31:58;4.78;;;1.20;;
46222;SDS011;31943;51.410;7.564;2022-11-04T12:41:10;7.28;;;1.25;;
46222;SDS011;31943;51.410;7.564;2022-11-04T12:55:48;3.97;;;1.45;;
46222;SDS011;31943;51.410;7.564;2022-11-04T13:13:19;2.63;;;1.23;;
46222;SDS011;31943;51.410;7.564;2022-11-04T13:16:12;5.55;;;1.45;;
46222;SDS011;31943;51.410;7.564;2022-11-04T13:26:12;4.05;;;1.33;;
46222;SDS011;31943;51.410;7.564;2022-11-04T13:29:15;4.78;;;1.30;;
46222;SDS011;31943;51.410;7.564;2022-11-04T13:32:03;3.92;;;1.27;;
46222;SDS011;31943;51.410;7.564;2022-11-04T13:35:17;4.38;;;1.20;;
46222;SDS011;31943;51.410;7.564;2022-11-04T13:38:24;2.92;;;0.98;;
46222;SDS011;31943;51.410;7.564;2022-11-04T13:52:31;3.92;;;1.60;;
46222;SDS011;31943;51.410;7.564;2022-11-04T13:55:48;6.25;;;1.50;;
46222;SDS011;31943;51.410;7.564;2022-11-04T14:16:11;6.03;;;1.48;;
46222;SDS011;31943;51.410;7.564;2022-11-04T14:22:03;5.60;;;1.33;;
46222;SDS011;31943;51.410;7.564;2022-11-04T15:02:34;7.43;;;2.35;;
46222;SDS011;31943;51.410;7.564;2022-11-04T15:05:23;5.57;;;1.52;;
46222;SDS011;31943;51.410;7.564;2022-11-04T15:11:38;5.07;;;1.60;;
46222;SDS011;31943;51.410;7.564;2022-11-04T15:14:27;5.35;;;2.67;;
46222;SDS011;31943;51.410;7.564;2022-11-04T15:17:16;6.70;;;2.63;;
46222;SDS011;31943;51.410;7.564;2022-11-04T15:22:40;9.10;;;4.70;;
46222;SDS011;31943;51.410;7.564;2022-11-04T15:28:23;13.32;;;5.55;;
46222;SDS011;31943;51.410;7.564;2022-11-04T15:31:14;11.27;;;5.15;;
46222;SDS011;31943;51.410;7.564;2022-11-04T15:37:21;11.48;;;4.80;;
46222;SDS011;31943;51.410;7.564;2022-11-04T15:40:11;13.93;;;4.65;;
46222;SDS011;31943;51.410;7.564;2022-11-04T15:42:58;10.55;;;5.30;;
46222;SDS011;31943;51.410;7.564;2022-11-04T15:45:52;14.20;;;5.88;;
46222;SDS011;31943;51.410;7.564;2022-11-04T15:52:25;14.50;;;5.53;;
46222;SDS011;31943;51.410;7.564;2022-11-04T16:14:17;11.02;;;5.53;;
46222;SDS011;31943;51.410;7.564;2022-11-04T16:17:08;11.10;;;4.50;;
46222;SDS011;31943;51.410;7.564;2022-11-04T16:20:00;9.85;;;4.47;;
46222;SDS011;31943;51.410;7.564;2022-11-04T16:34:18;7.10;;;3.92;;
46222;SDS011;31943;51.410;7.564;2022-11-04T16:39:42;7.70;;;3.88;;
46222;SDS011;31943;51.410;7.564;2022-11-04T16:47:48;8.15;;;2.95;;
46222;SDS011;31943;51.410;7.564;2022-11-04T16:54:05;6.88;;;3.17;;
46222;SDS011;31943;51.410;7.564;2022-11-04T17:00:22;7.38;;;3.00;;
46222;SDS011;31943;51.410;7.564;2022-11-04T17:03:25;6.82;;;2.78;;
46222;SDS011;31943;51.410;7.564;2022-11-04T17:25:47;7.05;;;2.80;;
46222;SDS011;31943;51.410;7.564;2022-11-04T17:28:36;7.65;;;3.38;;
46222;SDS011;31943;51.410;7.564;2022-11-04T17:38:51;8.23;;;3.50;;
46222;SDS011;31943;51.410;7.564;2022-11-04T17:52:32;5.15;;;3.00;;
46222;SDS011;31943;51.410;7.564;2022-11-04T17:55:23;6.68;;;3.20;;
46222;SDS011;31943;51.410;7.564;2022-11-04T19:18:22;7.15;;;5.53;;
46222;SDS011;31943;51.410;7.564;2022-11-04T19:21:10;14.27;;;7.90;;
46222;SDS011;31943;51.410;7.564;2022-11-04T19:23:57;12.25;;;10.52;;
46222;SDS011;31943;51.410;7.564;2022-11-04T19:27:04;37.42;;;32.22;;
46222;SDS011;31943;51.410;7.564;2022-11-04T20:57:22;10.35;;;7.00;;
46222;SDS011;31943;51.410;7.564;2022-11-04T21:00:12;12.55;;;7.75;;
46222;SDS011;31943;51.410;7.564;2022-11-04T21:02:59;11.25;;;8.45;;
46222;SDS011;31943;51.410;7.564;2022-11-04T21:05:57;9.98;;;8.10;;
46222;SDS011;31943;51.410;7.564;2022-11-04T21:08:43;12.50;;;8.48;;
46222;SDS011;31943;51.410;7.564;2022-11-04T21:14:52;9.90;;;8.40;;
46222;SDS011;31943;51.410;7.564;2022-11-04T21:17:46;8.67;;;6.97;;
46222;SDS011;31943;51.410;7.564;2022-11-04T21:20:33;9.18;;;7.65;;
46222;SDS011;31943;51.410;7.564;2022-11-04T21:23:24;15.63;;;9.02;;
46222;SDS011;31943;51.410;7.564;2022-11-04T21:26:13;10.90;;;8.35;;
46222;SDS011;31943;51.410;7.564;2022-11-04T21:29:18;11.23;;;7.47;;
46222;SDS011;31943;51.410;7.564;2022-11-04T21:32:32;10.93;;;8.02;;
46222;SDS011;31943;51.410;7.564;2022-11-04T21:35:20;11.48;;;9.20;;
46222;SDS011;31943;51.410;7.564;2022-11-04T21:38:08;14.63;;;9.85;;
46222;SDS011;31943;51.410;7.564;2022-11-04T21:41:00;12.25;;;9.32;;
46222;SDS011;31943;51.410;7.564;2022-11-04T21:43:58;11.55;;;9.10;;
46222;SDS011;31943;51.410;7.564;2022-11-04T22:25:31;15.48;;;11.30;;
46222;SDS011;31943;51.410;7.564;2022-11-04T22:28:26;15.93;;;11.75;;
46222;SDS011;31943;51.410;7.564;2022-11-04T22:32:15;18.30;;;14.77;;
46222;SDS011;31943;51.410;7.564;2022-11-04T22:36:06;22.25;;;16.60;;
46222;SDS011;31943;51.410;7.564;2022-11-04T23:03:05;24.25;;;17.38;;
46222;SDS011;31943;51.410;7.564;2022-11-04T23:05:58;31.95;;;21.50;;
46222;SDS011;31943;51.410;7.564;2022-11-04T23:08:52;28.33;;;18.13;;
46222;SDS011;31943;51.410;7.564;2022-11-04T23:12:15;30.73;;;19.80;;
46222;SDS011;31943;51.410;7.564;2022-11-04T23:15:14;22.90;;;16.60;;
